createdAt,value
2018-12-27T00:05:06.028Z,-4.70
2018-12-27T00:10:10.518Z,-4.80
2018-12-27T00:15:14.824Z,-4.80
2018-12-27T00:20:20.132Z,-4.80
2018-12-27T00:25:25.359Z,-4.90
2018-12-27T00:30:30.465Z,-4.90
2018-12-27T00:35:37.462Z,-4.90
2018-12-27T00:40:42.734Z,-4.90
2018-12-27T00:45:47.622Z,-4.90
2018-12-27T00:50:53.131Z,-4.90
2018-12-27T00:55:58.078Z,-4.90
2018-12-27T01:01:03.619Z,-4.90
2018-12-27T01:06:09.395Z,-4.90
2018-12-27T01:11:14.412Z,-4.90
2018-12-27T01:16:22.645Z,-4.90
2018-12-27T01:21:28.369Z,-4.90
2018-12-27T01:26:33.080Z,-4.90
2018-12-27T01:31:39.228Z,-4.90
2018-12-27T01:36:45.003Z,-4.90
2018-12-27T01:41:52.327Z,-4.90
2018-12-27T01:47:00.451Z,-4.90
2018-12-27T01:52:06.308Z,-4.90
2018-12-27T01:57:10.987Z,-4.80
2018-12-27T02:02:18.959Z,-4.80
2018-12-27T02:07:24.521Z,-4.90
2018-12-27T02:12:30.478Z,-5.00
2018-12-27T02:17:34.948Z,-5.00
2018-12-27T02:22:40.334Z,-5.10
2018-12-27T02:27:45.771Z,-5.10
2018-12-27T02:32:50.800Z,-5.10
2018-12-27T02:37:57.499Z,-5.20
2018-12-27T02:43:06.305Z,-5.30
2018-12-27T02:48:13.204Z,-5.30
2018-12-27T02:53:19.537Z,-5.40
2018-12-27T02:58:28.350Z,-5.40
2018-12-27T03:03:33.355Z,-5.40
2018-12-27T03:08:38.285Z,-5.40
2018-12-27T03:13:45.277Z,-5.40
2018-12-27T03:18:50.554Z,-5.40
2018-12-27T03:23:55.432Z,-5.40
2018-12-27T03:29:01.381Z,-5.40
2018-12-27T03:34:10.076Z,-5.40
2018-12-27T03:39:15.907Z,-5.40
2018-12-27T03:44:27.614Z,-5.40
2018-12-27T03:49:34.472Z,-5.40
2018-12-27T03:54:57.105Z,-5.40
2018-12-27T04:00:16.214Z,-5.40
2018-12-27T04:05:21.485Z,-5.40
2018-12-27T04:10:26.158Z,-5.40
2018-12-27T04:15:32.361Z,-5.40
2018-12-27T04:20:38.251Z,-5.50
2018-12-27T04:25:47.462Z,-5.60
2018-12-27T04:30:52.336Z,-5.60
2018-12-27T04:35:58.780Z,-5.60
2018-12-27T04:41:05.208Z,-5.60
2018-12-27T04:46:19.290Z,-5.70
2018-12-27T04:51:23.994Z,-5.70
2018-12-27T04:56:32.080Z,-5.70
2018-12-27T05:01:39.535Z,-5.70
2018-12-27T05:06:44.580Z,-5.70
2018-12-27T05:11:49.526Z,-5.70
2018-12-27T05:16:58.268Z,-5.70
2018-12-27T05:22:03.458Z,-5.80
2018-12-27T05:27:11.037Z,-5.80
2018-12-27T05:32:17.402Z,-5.80
2018-12-27T05:37:22.409Z,-5.80
2018-12-27T05:42:27.434Z,-5.80
2018-12-27T05:47:36.016Z,-5.90
2018-12-27T05:52:41.237Z,-5.80
2018-12-27T05:57:48.363Z,-5.80
2018-12-27T06:02:52.945Z,-5.80
2018-12-27T06:07:58.110Z,-5.80
2018-12-27T06:13:02.554Z,-5.80
2018-12-27T06:18:06.969Z,-5.90
2018-12-27T06:23:11.676Z,-5.90
2018-12-27T06:28:18.528Z,-6.00
2018-12-27T06:33:26.325Z,-6.00
2018-12-27T06:38:31.347Z,-6.00
2018-12-27T06:43:36.087Z,-6.00
2018-12-27T06:48:41.354Z,-6.00
2018-12-27T06:53:46.753Z,-5.90
2018-12-27T06:58:51.537Z,-5.70
2018-12-27T07:03:57.456Z,-5.60
2018-12-27T07:09:03.871Z,-5.30
2018-12-27T07:14:09.284Z,-5.40
2018-12-27T07:19:14.196Z,-5.40
2018-12-27T07:24:19.519Z,-5.40
2018-12-27T07:29:24.141Z,-5.40
2018-12-27T07:34:31.150Z,-5.40
2018-12-27T07:39:36.207Z,-5.30
2018-12-27T07:49:52.054Z,-5.20
2018-12-27T07:54:56.953Z,-5.10
2018-12-27T08:00:01.815Z,-5.00
2018-12-27T08:05:07.454Z,-4.90
2018-12-27T08:10:12.384Z,-4.80
2018-12-27T08:15:25.176Z,-4.70
2018-12-27T08:20:32.589Z,-4.60
2018-12-27T08:25:38.437Z,-4.50
2018-12-27T08:30:43.800Z,-4.40
2018-12-27T08:35:48.834Z,-4.20
2018-12-27T08:40:57.231Z,-4.00
2018-12-27T08:46:02.248Z,-3.80
2018-12-27T08:51:11.057Z,-3.40
2018-12-27T08:56:15.877Z,-3.00
2018-12-27T09:01:20.898Z,-2.30
2018-12-27T09:06:25.378Z,-1.50
2018-12-27T09:11:30.820Z,-0.90
2018-12-27T09:16:36.667Z,-0.60
2018-12-27T09:21:42.245Z,-0.50
2018-12-27T09:26:46.899Z,-0.40
2018-12-27T09:31:52.560Z,-0.30
2018-12-27T09:36:59.157Z,-0.20
2018-12-27T09:42:04.745Z,-0.30
2018-12-27T09:47:09.672Z,-0.30
2018-12-27T09:52:15.402Z,-0.30
2018-12-27T09:57:20.735Z,-0.20
2018-12-27T10:02:26.999Z,-0.10
2018-12-27T10:07:33.440Z,-0.10
2018-12-27T10:12:38.155Z,-0.10
2018-12-27T10:17:43.068Z,0.10
2018-12-27T10:22:48.061Z,0.40
2018-12-27T10:27:54.343Z,0.40
2018-12-27T10:33:02.145Z,0.30
2018-12-27T10:38:11.034Z,0.20
2018-12-27T10:43:17.183Z,0.20
2018-12-27T10:48:23.521Z,0.30
2018-12-27T10:53:28.462Z,0.40
2018-12-27T10:58:34.611Z,0.40
2018-12-27T11:03:41.655Z,0.30
2018-12-27T11:08:49.981Z,0.20
2018-12-27T11:13:58.086Z,0.20
2018-12-27T11:19:03.425Z,0.30
2018-12-27T11:24:08.873Z,0.40
2018-12-27T11:29:13.832Z,0.70
2018-12-27T11:34:18.822Z,0.90
2018-12-27T11:39:23.696Z,1.00
2018-12-27T11:44:31.848Z,1.00
2018-12-27T11:49:36.438Z,1.20
2018-12-27T11:54:41.308Z,1.10
2018-12-27T11:59:45.836Z,1.10
2018-12-27T12:04:51.899Z,1.20
2018-12-27T12:09:56.386Z,1.10
2018-12-27T12:15:01.142Z,1.10
2018-12-27T12:20:07.101Z,1.30
2018-12-27T12:25:12.031Z,1.60
2018-12-27T12:30:18.345Z,1.80
2018-12-27T12:35:25.909Z,1.90
2018-12-27T12:40:30.258Z,1.80
2018-12-27T12:45:35.481Z,1.70
2018-12-27T12:50:41.253Z,1.60
2018-12-27T12:55:48.343Z,1.50
2018-12-27T13:00:56.308Z,1.70
2018-12-27T13:06:01.333Z,2.10
2018-12-27T13:11:06.028Z,2.40
2018-12-27T13:16:11.387Z,2.70
2018-12-27T13:21:16.376Z,2.50
2018-12-27T13:26:21.251Z,2.70
2018-12-27T13:31:25.894Z,2.60
2018-12-27T13:36:30.483Z,2.60
2018-12-27T13:41:35.063Z,2.40
2018-12-27T13:46:43.021Z,2.40
2018-12-27T13:51:48.945Z,2.40
2018-12-27T13:56:54.319Z,2.30
2018-12-27T14:01:59.762Z,2.30
2018-12-27T14:07:05.551Z,2.20
2018-12-27T14:12:11.553Z,2.20
2018-12-27T14:17:16.263Z,2.20
2018-12-27T14:22:21.250Z,2.20
2018-12-27T14:27:28.626Z,2.10
2018-12-27T14:32:34.556Z,2.10
2018-12-27T14:37:40.368Z,1.90
2018-12-27T14:42:46.026Z,1.70
2018-12-27T14:47:52.020Z,1.60
2018-12-27T14:52:56.391Z,1.50
2018-12-27T14:58:00.800Z,1.30
2018-12-27T15:03:06.157Z,1.10
2018-12-27T15:08:11.633Z,1.00
2018-12-27T15:13:16.383Z,0.70
2018-12-27T15:18:20.605Z,0.50
2018-12-27T15:23:25.916Z,0.30
2018-12-27T15:28:31.785Z,0.10
2018-12-27T15:33:36.102Z,0.00
2018-12-27T15:38:41.401Z,-0.10
2018-12-27T15:43:46.283Z,-0.30
2018-12-27T15:48:51.865Z,-0.40
2018-12-27T15:53:58.137Z,-0.50
2018-12-27T15:59:03.532Z,-0.50
2018-12-27T16:04:08.287Z,-0.60
2018-12-27T16:09:16.381Z,-0.70
2018-12-27T16:14:21.370Z,-0.80
2018-12-27T16:19:26.538Z,-0.80
2018-12-27T16:24:31.237Z,-0.90
2018-12-27T16:29:36.668Z,-0.90
2018-12-27T16:34:41.131Z,-0.90
2018-12-27T16:39:46.535Z,-1.00
2018-12-27T16:44:51.358Z,-1.10
2018-12-27T16:49:55.949Z,-1.10
2018-12-27T16:55:01.213Z,-1.20
2018-12-27T17:00:10.282Z,-1.30
2018-12-27T17:05:46.500Z,-1.30
2018-12-27T17:10:51.780Z,-1.30
2018-12-27T17:16:04.268Z,-1.40
2018-12-27T17:21:09.860Z,-1.50
2018-12-27T17:26:19.406Z,-1.60
2018-12-27T17:31:29.541Z,-1.70
2018-12-27T17:36:35.210Z,-1.80
2018-12-27T17:41:42.618Z,-1.90
2018-12-27T17:46:53.321Z,-1.90
2018-12-27T17:51:59.137Z,-1.90
2018-12-27T17:57:04.753Z,-2.00
2018-12-27T18:02:09.439Z,-2.10
2018-12-27T18:07:14.146Z,-2.10
2018-12-27T18:12:20.324Z,-2.20
2018-12-27T18:17:25.571Z,-2.20
2018-12-27T18:22:31.305Z,-2.30
2018-12-27T18:27:37.831Z,-2.30
2018-12-27T18:32:43.735Z,-2.30
2018-12-27T18:37:49.369Z,-2.40
2018-12-27T18:42:54.426Z,-2.50
2018-12-27T18:47:58.807Z,-2.60
2018-12-27T18:53:05.205Z,-2.60
2018-12-27T18:58:09.708Z,-2.70
2018-12-27T19:03:15.974Z,-2.70
2018-12-27T19:08:21.518Z,-2.70
2018-12-27T19:13:26.172Z,-2.70
2018-12-27T19:18:38.730Z,-2.70
2018-12-27T19:23:48.062Z,-2.70
2018-12-27T19:28:55.851Z,-2.60
2018-12-27T19:34:03.173Z,-2.60
2018-12-27T19:39:08.390Z,-2.60
2018-12-27T19:44:13.477Z,-2.60
2018-12-27T19:49:22.937Z,-2.50
2018-12-27T19:54:32.052Z,-2.40
2018-12-27T19:59:36.379Z,-2.30
2018-12-27T20:04:42.306Z,-2.30
2018-12-27T20:09:50.211Z,-2.20
2018-12-27T20:14:58.100Z,-2.20
2018-12-27T20:20:04.441Z,-2.20
2018-12-27T20:25:10.017Z,-2.10
2018-12-27T20:30:14.802Z,-2.00
2018-12-27T20:35:23.560Z,-2.00
2018-12-27T20:40:28.500Z,-2.10
2018-12-27T20:45:34.115Z,-2.00
2018-12-27T20:50:39.919Z,-2.00
2018-12-27T20:55:45.300Z,-2.00
2018-12-27T21:00:54.372Z,-2.10
2018-12-27T21:05:59.200Z,-2.10
2018-12-27T21:11:04.237Z,-2.10
2018-12-27T21:16:08.805Z,-2.10
2018-12-27T21:21:14.483Z,-2.20
2018-12-27T21:26:20.260Z,-2.20
2018-12-27T21:31:25.108Z,-2.20
2018-12-27T21:36:32.315Z,-2.20
2018-12-27T21:41:40.175Z,-2.20
2018-12-27T21:46:44.879Z,-2.10
2018-12-27T21:51:49.818Z,-2.10
2018-12-27T21:56:54.703Z,-2.10
2018-12-27T22:01:59.407Z,-2.20
2018-12-27T22:07:04.564Z,-2.30
2018-12-27T22:12:09.557Z,-2.40
2018-12-27T22:17:14.557Z,-2.40
2018-12-27T22:22:19.647Z,-2.40
2018-12-27T22:27:25.257Z,-2.40
2018-12-27T22:32:31.770Z,-2.40
2018-12-27T22:37:36.859Z,-2.20
2018-12-27T22:42:45.496Z,-2.20
2018-12-27T22:47:50.521Z,-2.20
2018-12-27T22:52:55.985Z,-2.30
2018-12-27T22:58:01.215Z,-2.40
2018-12-27T23:03:08.390Z,-2.50
2018-12-27T23:08:12.879Z,-2.50
2018-12-27T23:13:19.958Z,-2.60
2018-12-27T23:18:25.450Z,-2.60
2018-12-27T23:23:30.681Z,-2.60
2018-12-27T23:28:35.728Z,-2.70
2018-12-27T23:33:42.372Z,-2.70
2018-12-27T23:38:50.386Z,-2.80
2018-12-27T23:43:54.242Z,-2.80
2018-12-27T23:49:01.385Z,-2.80
2018-12-27T23:54:07.887Z,-2.80
2018-12-27T23:59:12.549Z,-2.80
